createdAt,value
2019-01-21T00:00:44.720Z,39.80
2019-01-21T00:01:44.663Z,37.50
2019-01-21T00:02:44.676Z,38.70
2019-01-21T00:03:44.643Z,39.70
2019-01-21T00:04:44.634Z,36.30
2019-01-21T00:05:44.628Z,38.30
2019-01-21T00:06:44.614Z,38.50
2019-01-21T00:07:44.609Z,38.30
2019-01-21T00:08:44.604Z,35.10
2019-01-21T00:09:44.586Z,38.80
2019-01-21T00:10:44.576Z,39.00
2019-01-21T00:11:44.559Z,36.60
2019-01-21T00:12:44.554Z,38.90
2019-01-21T00:13:44.581Z,35.80
2019-01-21T00:14:44.532Z,39.40
2019-01-21T00:15:44.638Z,38.60
2019-01-21T00:16:44.509Z,39.00
2019-01-21T00:17:44.496Z,38.80
2019-01-21T00:18:44.487Z,38.50
2019-01-21T00:19:44.503Z,39.50
2019-01-21T00:20:44.465Z,38.50
2019-01-21T00:21:44.461Z,38.60
2019-01-21T00:22:44.444Z,39.60
2019-01-21T00:23:44.435Z,38.80
2019-01-21T00:24:44.424Z,40.60
2019-01-21T00:25:44.422Z,41.10
2019-01-21T00:26:44.409Z,39.50
2019-01-21T00:27:44.399Z,41.10
2019-01-21T00:28:44.389Z,43.20
2019-01-21T00:29:44.375Z,46.20
2019-01-21T00:30:44.377Z,45.10
2019-01-21T00:31:44.350Z,45.20
2019-01-21T00:32:44.340Z,44.70
2019-01-21T00:33:44.338Z,43.80
2019-01-21T00:34:44.319Z,42.50
2019-01-21T00:35:44.313Z,42.60
2019-01-21T00:36:44.327Z,47.60
2019-01-21T00:37:44.289Z,42.80
2019-01-21T00:38:44.283Z,47.60
2019-01-21T00:39:44.272Z,45.60
2019-01-21T00:40:44.259Z,42.80
2019-01-21T00:41:44.245Z,44.90
2019-01-21T00:42:44.254Z,41.60
2019-01-21T00:43:44.237Z,46.80
2019-01-21T00:44:44.223Z,44.80
2019-01-21T00:45:44.203Z,42.70
2019-01-21T00:46:44.201Z,45.00
2019-01-21T00:47:44.189Z,43.90
2019-01-21T00:48:44.175Z,43.10
2019-01-21T00:49:44.166Z,42.30
2019-01-21T00:50:44.160Z,44.30
2019-01-21T00:51:44.138Z,42.50
2019-01-21T00:52:44.129Z,43.50
2019-01-21T00:53:44.118Z,44.60
2019-01-21T00:54:44.108Z,43.20
2019-01-21T00:55:44.106Z,45.60
2019-01-21T00:56:44.091Z,44.80
2019-01-21T00:57:44.076Z,44.20
2019-01-21T00:58:44.075Z,42.80
2019-01-21T00:59:44.060Z,43.50
2019-01-21T01:00:44.051Z,46.80
2019-01-21T01:01:44.044Z,47.20
2019-01-21T01:02:44.030Z,47.70
2019-01-21T01:03:44.013Z,44.60
2019-01-21T01:04:44.006Z,45.40
2019-01-21T01:05:43.995Z,48.40
2019-01-21T01:06:44.003Z,44.70
2019-01-21T01:07:43.970Z,43.50
2019-01-21T01:08:43.960Z,44.10
2019-01-21T01:09:43.954Z,48.20
2019-01-21T01:10:43.938Z,44.70
2019-01-21T01:11:43.927Z,45.80
2019-01-21T01:12:43.925Z,51.80
2019-01-21T01:13:43.911Z,45.20
2019-01-21T01:14:43.895Z,48.90
2019-01-21T01:15:43.891Z,46.20
2019-01-21T01:16:43.874Z,46.60
2019-01-21T01:17:43.871Z,46.40
2019-01-21T01:18:43.868Z,46.50
2019-01-21T01:19:43.847Z,46.70
2019-01-21T01:20:43.831Z,43.90
2019-01-21T01:21:43.826Z,45.50
2019-01-21T01:22:43.811Z,43.60
2019-01-21T01:23:43.810Z,44.50
2019-01-21T01:24:43.789Z,45.50
2019-01-21T01:25:43.794Z,43.80
2019-01-21T01:26:43.767Z,48.90
2019-01-21T01:27:43.759Z,44.20
2019-01-21T01:28:43.747Z,45.10
2019-01-21T01:29:43.743Z,48.60
2019-01-21T01:30:43.735Z,43.50
2019-01-21T01:31:43.721Z,45.80
2019-01-21T01:32:43.713Z,45.90
2019-01-21T01:33:43.695Z,44.40
2019-01-21T01:34:43.689Z,41.60
2019-01-21T01:35:43.686Z,42.80
2019-01-21T01:36:43.662Z,43.40
2019-01-21T01:37:43.651Z,45.80
2019-01-21T01:38:51.286Z,45.80
2019-01-21T01:39:43.633Z,48.00
2019-01-21T01:40:43.649Z,43.70
2019-01-21T01:41:43.609Z,43.30
2019-01-21T01:42:43.600Z,43.60
2019-01-21T01:43:43.588Z,43.90
2019-01-21T01:44:43.585Z,44.50
2019-01-21T01:45:43.567Z,43.70
2019-01-21T01:46:43.573Z,44.50
2019-01-21T01:47:44.921Z,44.70
2019-01-21T01:48:43.541Z,44.10
2019-01-21T01:49:43.524Z,42.70
2019-01-21T01:50:43.513Z,46.10
2019-01-21T01:51:43.516Z,42.90
2019-01-21T01:52:43.496Z,40.20
2019-01-21T01:53:43.495Z,42.30
2019-01-21T01:54:43.472Z,42.00
2019-01-21T01:55:43.465Z,40.70
2019-01-21T01:56:43.454Z,42.00
2019-01-21T01:57:43.447Z,42.70
2019-01-21T01:58:43.430Z,42.90
2019-01-21T01:59:43.417Z,41.90
2019-01-21T02:00:43.416Z,40.70
2019-01-21T02:01:43.401Z,42.00
2019-01-21T02:02:43.421Z,42.80
2019-01-21T02:03:43.380Z,40.40
2019-01-21T02:04:43.373Z,43.60
2019-01-21T02:05:43.354Z,40.50
2019-01-21T02:06:43.348Z,38.70
2019-01-21T02:07:43.342Z,38.30
2019-01-21T02:08:43.360Z,38.50
2019-01-21T02:09:43.314Z,38.60
2019-01-21T02:10:43.309Z,36.30
2019-01-21T02:11:43.293Z,38.10
2019-01-21T02:12:43.283Z,34.90
2019-01-21T02:13:43.280Z,36.60
2019-01-21T02:14:43.270Z,35.90
2019-01-21T02:15:43.253Z,35.80
2019-01-21T02:16:43.239Z,35.00
2019-01-21T02:17:43.235Z,34.20
2019-01-21T02:18:43.220Z,34.80
2019-01-21T02:19:43.219Z,35.30
2019-01-21T02:20:43.197Z,33.20
2019-01-21T02:21:43.188Z,32.00
2019-01-21T02:22:43.175Z,34.80
2019-01-21T02:23:43.167Z,33.80
2019-01-21T02:24:43.176Z,34.50
2019-01-21T02:25:43.148Z,36.90
2019-01-21T02:26:43.140Z,34.20
2019-01-21T02:27:43.125Z,36.80
2019-01-21T02:28:43.122Z,36.10
2019-01-21T02:29:43.106Z,37.30
2019-01-21T02:30:43.104Z,38.50
2019-01-21T02:31:43.082Z,36.70
2019-01-21T02:32:43.080Z,37.80
2019-01-21T02:33:43.066Z,36.10
2019-01-21T02:34:43.053Z,38.80
2019-01-21T02:35:43.056Z,36.10
2019-01-21T02:36:43.039Z,37.50
2019-01-21T02:37:43.027Z,37.10
2019-01-21T02:38:43.008Z,38.40
2019-01-21T02:39:43.005Z,38.60
2019-01-21T02:40:42.993Z,38.60
2019-01-21T02:41:43.016Z,37.60
2019-01-21T02:42:42.967Z,38.40
2019-01-21T02:43:42.963Z,39.20
2019-01-21T02:44:42.949Z,39.10
2019-01-21T02:45:42.933Z,38.90
2019-01-21T02:46:42.966Z,37.00
2019-01-21T02:47:42.950Z,39.30
2019-01-21T02:48:42.906Z,36.40
2019-01-21T02:49:42.895Z,40.00
2019-01-21T02:50:42.885Z,38.50
2019-01-21T02:51:42.868Z,35.20
2019-01-21T02:52:42.865Z,38.40
2019-01-21T02:53:42.863Z,42.20
2019-01-21T02:54:42.836Z,38.80
2019-01-21T02:55:42.833Z,36.50
2019-01-21T02:56:42.828Z,35.70
2019-01-21T02:57:42.812Z,39.10
2019-01-21T02:58:42.819Z,37.40
2019-01-21T02:59:42.797Z,37.30
2019-01-21T03:00:42.779Z,40.30
2019-01-21T03:01:42.765Z,40.50
2019-01-21T03:02:42.770Z,41.00
2019-01-21T03:03:42.743Z,39.10
2019-01-21T03:04:42.736Z,39.50
2019-01-21T03:05:42.722Z,37.70
2019-01-21T03:06:42.764Z,39.00
2019-01-21T03:07:42.715Z,36.70
2019-01-21T03:08:42.729Z,44.20
2019-01-21T03:09:42.680Z,40.20
2019-01-21T03:10:42.677Z,40.80
2019-01-21T03:11:42.659Z,41.10
2019-01-21T03:12:42.648Z,37.10
2019-01-21T03:13:42.636Z,39.10
2019-01-21T03:14:42.635Z,41.60
2019-01-21T03:15:42.621Z,40.20
2019-01-21T03:16:42.614Z,40.40
2019-01-21T03:17:42.594Z,40.30
2019-01-21T03:18:43.636Z,41.80
2019-01-21T03:19:42.588Z,40.60
2019-01-21T03:20:42.570Z,39.20
2019-01-21T03:21:42.556Z,40.60
2019-01-21T03:22:42.551Z,38.40
2019-01-21T03:23:42.552Z,39.80
2019-01-21T03:24:42.530Z,41.70
2019-01-21T03:25:42.514Z,41.10
2019-01-21T03:26:42.505Z,40.40
2019-01-21T03:27:42.492Z,39.80
2019-01-21T03:28:42.485Z,37.30
2019-01-21T03:29:42.482Z,38.90
2019-01-21T03:30:42.477Z,39.70
2019-01-21T03:31:42.448Z,41.00
2019-01-21T03:32:42.447Z,40.50
2019-01-21T03:33:42.451Z,36.90
2019-01-21T03:34:42.468Z,41.10
2019-01-21T03:35:42.410Z,39.30
2019-01-21T03:36:42.397Z,38.30
2019-01-21T03:37:42.389Z,38.00
2019-01-21T03:38:42.384Z,40.60
2019-01-21T03:39:42.362Z,42.30
2019-01-21T03:40:42.370Z,39.70
2019-01-21T03:41:42.345Z,38.10
2019-01-21T03:42:42.335Z,36.00
2019-01-21T03:43:42.323Z,40.40
2019-01-21T03:44:42.333Z,37.60
2019-01-21T03:45:42.343Z,37.10
2019-01-21T03:46:42.293Z,39.00
2019-01-21T03:47:42.282Z,40.20
2019-01-21T03:48:42.267Z,36.80
2019-01-21T03:49:42.261Z,38.50
2019-01-21T03:50:42.254Z,37.50
2019-01-21T03:51:42.260Z,36.50
2019-01-21T03:52:42.245Z,41.40
2019-01-21T03:53:42.218Z,39.30
2019-01-21T03:54:42.204Z,37.60
2019-01-21T03:55:42.199Z,42.00
2019-01-21T03:56:42.237Z,41.40
2019-01-21T03:57:42.187Z,39.40
2019-01-21T03:58:42.161Z,41.70
2019-01-21T03:59:42.149Z,42.30
2019-01-21T04:00:42.139Z,39.80
2019-01-21T04:01:42.140Z,38.60
2019-01-21T04:02:42.127Z,41.20
2019-01-21T04:03:42.111Z,40.20
2019-01-21T04:04:42.096Z,39.60
2019-01-21T04:05:42.097Z,41.00
2019-01-21T04:06:42.082Z,38.40
2019-01-21T04:07:42.084Z,39.60
2019-01-21T04:08:42.058Z,42.20
2019-01-21T04:09:42.055Z,37.80
2019-01-21T04:10:42.035Z,38.40
2019-01-21T04:11:42.023Z,36.00
2019-01-21T04:12:42.014Z,36.70
2019-01-21T04:13:42.048Z,36.80
2019-01-21T04:14:41.997Z,36.20
2019-01-21T04:15:41.994Z,38.50
2019-01-21T04:16:41.971Z,37.80
2019-01-21T04:17:41.965Z,38.40
2019-01-21T04:18:41.955Z,38.20
2019-01-21T04:19:41.959Z,36.70
2019-01-21T04:20:41.933Z,41.70
2019-01-21T04:21:41.929Z,43.10
2019-01-21T04:22:41.908Z,40.20
2019-01-21T04:23:41.896Z,39.20
2019-01-21T04:24:41.929Z,43.00
2019-01-21T04:25:41.879Z,41.00
2019-01-21T04:26:41.876Z,40.00
2019-01-21T04:27:41.860Z,40.60
2019-01-21T04:28:41.853Z,43.20
2019-01-21T04:29:41.853Z,39.40
2019-01-21T04:30:41.843Z,42.10
2019-01-21T04:31:41.811Z,42.60
2019-01-21T04:32:41.801Z,40.20
2019-01-21T04:33:41.792Z,42.70
2019-01-21T04:34:41.782Z,41.80
2019-01-21T04:35:41.778Z,42.10
2019-01-21T04:36:41.766Z,40.00
2019-01-21T04:37:41.754Z,121.00
2019-01-21T04:38:41.738Z,63.30
2019-01-21T04:39:41.734Z,211.70
2019-01-21T04:40:41.755Z,114.40
2019-01-21T04:41:41.719Z,58.50
2019-01-21T04:42:41.699Z,40.40
2019-01-21T04:43:41.700Z,43.30
2019-01-21T04:44:41.682Z,39.60
2019-01-21T04:45:41.674Z,40.20
2019-01-21T04:46:41.660Z,40.50
2019-01-21T04:47:41.650Z,38.40
2019-01-21T04:48:41.662Z,41.10
2019-01-21T04:49:41.631Z,42.30
2019-01-21T04:50:41.657Z,41.20
2019-01-21T04:51:41.609Z,39.30
2019-01-21T04:52:41.594Z,38.70
2019-01-21T04:53:41.585Z,35.80
2019-01-21T04:54:41.585Z,38.50
2019-01-21T04:55:41.561Z,39.10
2019-01-21T04:56:41.578Z,39.20
2019-01-21T04:57:41.541Z,41.00
2019-01-21T04:58:41.532Z,38.20
2019-01-21T04:59:41.522Z,38.70
2019-01-21T05:00:41.509Z,38.20
2019-01-21T05:01:41.510Z,40.10
2019-01-21T05:02:41.506Z,37.90
2019-01-21T05:03:41.481Z,40.20
2019-01-21T05:04:41.471Z,37.20
2019-01-21T05:05:41.465Z,42.60
2019-01-21T05:06:41.461Z,39.90
2019-01-21T05:07:41.443Z,40.10
2019-01-21T05:08:41.452Z,42.00
2019-01-21T05:09:41.424Z,64.50
2019-01-21T05:10:41.412Z,64.60
2019-01-21T05:11:41.398Z,84.70
2019-01-21T05:12:41.398Z,82.40
2019-01-21T05:13:41.377Z,42.20
2019-01-21T05:14:41.383Z,44.60
2019-01-21T05:15:41.356Z,42.70
2019-01-21T05:16:41.353Z,42.10
2019-01-21T05:17:41.335Z,42.10
2019-01-21T05:18:41.560Z,43.50
2019-01-21T05:19:41.354Z,45.60
2019-01-21T05:20:41.310Z,43.50
2019-01-21T05:21:41.327Z,42.60
2019-01-21T05:22:41.283Z,42.10
2019-01-21T05:23:41.277Z,42.70
2019-01-21T05:24:41.272Z,42.30
2019-01-21T05:25:41.288Z,43.70
2019-01-21T05:26:41.246Z,42.90
2019-01-21T05:27:41.233Z,42.80
2019-01-21T05:28:41.228Z,45.10
2019-01-21T05:29:41.216Z,42.40
2019-01-21T05:30:41.216Z,43.00
2019-01-21T05:31:41.201Z,46.30
2019-01-21T05:32:41.191Z,43.20
2019-01-21T05:33:41.176Z,44.90
2019-01-21T05:34:41.161Z,41.90
2019-01-21T05:35:41.156Z,40.50
2019-01-21T05:36:41.168Z,38.60
2019-01-21T05:37:41.148Z,43.00
2019-01-21T05:38:41.128Z,44.00
2019-01-21T05:39:41.112Z,44.40
2019-01-21T05:40:41.110Z,40.10
2019-01-21T05:41:41.092Z,41.50
2019-01-21T05:42:41.093Z,39.80
2019-01-21T05:43:41.074Z,42.80
2019-01-21T05:44:41.075Z,39.30
2019-01-21T05:45:41.047Z,42.40
2019-01-21T05:46:41.035Z,44.80
2019-01-21T05:47:41.037Z,44.20
2019-01-21T05:48:41.018Z,43.20
2019-01-21T05:49:41.010Z,44.10
2019-01-21T05:50:40.993Z,44.90
2019-01-21T05:51:40.996Z,44.20
2019-01-21T05:52:41.006Z,41.50
2019-01-21T05:53:40.974Z,43.40
2019-01-21T05:54:40.957Z,40.00
2019-01-21T05:55:40.944Z,41.40
2019-01-21T05:56:40.944Z,41.40
2019-01-21T05:57:40.922Z,42.80
2019-01-21T05:58:40.926Z,41.00
2019-01-21T05:59:40.903Z,43.70
2019-01-21T06:00:40.894Z,41.00
2019-01-21T06:01:40.881Z,44.50
2019-01-21T06:02:40.886Z,39.60
2019-01-21T06:03:40.868Z,40.80
2019-01-21T06:04:40.849Z,37.90
2019-01-21T06:05:40.843Z,40.80
2019-01-21T06:06:40.851Z,39.80
2019-01-21T06:07:40.828Z,40.50
2019-01-21T06:08:40.823Z,42.30
2019-01-21T06:09:40.840Z,44.40
2019-01-21T06:10:40.791Z,37.60
2019-01-21T06:11:40.782Z,41.00
2019-01-21T06:12:40.771Z,36.70
2019-01-21T06:13:40.765Z,36.90
2019-01-21T06:14:40.753Z,38.10
2019-01-21T06:15:40.742Z,38.10
2019-01-21T06:16:40.730Z,42.20
2019-01-21T06:17:40.719Z,39.30
2019-01-21T06:18:40.710Z,40.10
2019-01-21T06:19:40.702Z,37.70
2019-01-21T06:20:40.699Z,37.90
2019-01-21T06:21:40.676Z,40.00
2019-01-21T06:22:40.662Z,41.80
2019-01-21T06:23:40.662Z,38.40
2019-01-21T06:24:40.646Z,37.20
2019-01-21T06:25:40.676Z,39.30
2019-01-21T06:26:40.627Z,40.00
2019-01-21T06:27:40.615Z,40.70
2019-01-21T06:28:40.598Z,38.90
2019-01-21T06:29:40.593Z,36.90
2019-01-21T06:30:40.580Z,38.70
2019-01-21T06:31:40.608Z,38.30
2019-01-21T06:32:40.561Z,40.80
2019-01-21T06:33:40.549Z,40.50
2019-01-21T06:34:40.542Z,39.10
2019-01-21T06:35:40.527Z,38.90
2019-01-21T06:36:40.520Z,38.70
2019-01-21T06:37:40.516Z,41.10
2019-01-21T06:38:40.498Z,40.50
2019-01-21T06:39:40.489Z,41.90
2019-01-21T06:40:40.477Z,40.50
2019-01-21T06:41:40.468Z,43.40
2019-01-21T06:42:40.491Z,41.60
2019-01-21T06:43:40.446Z,40.10
2019-01-21T06:44:40.488Z,42.40
2019-01-21T06:45:40.421Z,41.20
2019-01-21T06:46:40.418Z,40.70
2019-01-21T06:47:40.403Z,43.90
2019-01-21T06:48:40.403Z,43.40
2019-01-21T06:49:40.384Z,41.00
2019-01-21T06:50:40.382Z,40.20
2019-01-21T06:51:40.357Z,41.60
2019-01-21T06:52:40.355Z,40.30
2019-01-21T06:53:40.352Z,42.50
2019-01-21T06:54:40.328Z,43.40
2019-01-21T06:55:40.321Z,41.40
2019-01-21T06:56:47.274Z,41.60
2019-01-21T06:57:41.297Z,40.30
2019-01-21T06:58:40.299Z,38.10
2019-01-21T06:59:40.278Z,37.40
2019-01-21T07:00:40.275Z,40.00
2019-01-21T07:01:40.289Z,40.50
2019-01-21T07:02:40.247Z,40.10
2019-01-21T07:03:40.246Z,38.20
2019-01-21T07:04:40.227Z,38.30
2019-01-21T07:05:40.209Z,34.20
2019-01-21T07:06:40.199Z,36.90
2019-01-21T07:07:40.194Z,36.00
2019-01-21T07:08:40.184Z,38.60
2019-01-21T07:09:40.184Z,38.50
2019-01-21T07:10:40.158Z,37.10
2019-01-21T07:11:40.153Z,36.70
2019-01-21T07:12:40.139Z,35.80
2019-01-21T07:13:40.136Z,35.90
2019-01-21T07:14:40.132Z,37.30
2019-01-21T07:15:40.110Z,37.10
2019-01-21T07:16:40.103Z,36.10
2019-01-21T07:17:40.085Z,36.10
2019-01-21T07:18:40.078Z,34.90
2019-01-21T07:19:40.082Z,33.50
2019-01-21T07:20:40.053Z,36.20
2019-01-21T07:21:40.045Z,40.10
2019-01-21T07:22:40.043Z,36.90
2019-01-21T07:23:40.023Z,34.10
2019-01-21T07:24:40.028Z,37.10
2019-01-21T07:25:40.005Z,38.60
2019-01-21T07:26:39.999Z,38.40
2019-01-21T07:27:39.993Z,37.40
2019-01-21T07:28:39.986Z,39.70
2019-01-21T07:29:39.964Z,34.80
2019-01-21T07:30:39.956Z,37.30
2019-01-21T07:31:39.938Z,35.40
2019-01-21T07:32:39.943Z,35.80
2019-01-21T07:33:39.922Z,36.30
2019-01-21T07:34:39.908Z,36.30
2019-01-21T07:35:39.902Z,33.10
2019-01-21T07:36:39.896Z,38.40
2019-01-21T07:37:39.886Z,37.10
2019-01-21T07:38:39.868Z,36.80
2019-01-21T07:39:39.854Z,39.40
2019-01-21T07:40:39.851Z,38.80
2019-01-21T07:41:39.834Z,38.20
2019-01-21T07:42:39.838Z,40.30
2019-01-21T07:43:39.841Z,37.70
2019-01-21T07:44:39.808Z,38.70
2019-01-21T07:45:41.458Z,36.80
2019-01-21T07:46:39.786Z,38.10
2019-01-21T07:47:39.777Z,40.40
2019-01-21T07:48:39.768Z,37.30
2019-01-21T07:49:39.763Z,38.60
2019-01-21T07:50:39.740Z,38.50
2019-01-21T07:51:39.729Z,35.00
2019-01-21T07:52:39.721Z,40.20
2019-01-21T07:53:39.708Z,35.80
2019-01-21T07:54:39.706Z,38.20
2019-01-21T07:55:39.693Z,37.20
2019-01-21T07:56:39.677Z,37.80
2019-01-21T07:57:39.669Z,35.80
2019-01-21T07:58:39.703Z,36.90
2019-01-21T07:59:39.642Z,37.70
2019-01-21T08:00:39.637Z,39.00
2019-01-21T08:01:39.636Z,40.40
2019-01-21T08:02:39.614Z,38.80
2019-01-21T08:03:39.601Z,37.80
2019-01-21T08:04:39.598Z,38.30
2019-01-21T08:05:39.580Z,38.00
2019-01-21T08:06:39.582Z,38.90
2019-01-21T08:07:39.565Z,35.90
2019-01-21T08:08:39.549Z,36.90
2019-01-21T08:09:39.540Z,41.60
2019-01-21T08:10:39.527Z,41.80
2019-01-21T08:11:39.559Z,39.30
2019-01-21T08:12:39.511Z,38.10
2019-01-21T08:13:39.503Z,38.30
2019-01-21T08:14:39.487Z,39.90
2019-01-21T08:15:39.478Z,37.40
2019-01-21T08:16:39.469Z,39.90
2019-01-21T08:17:39.473Z,39.50
2019-01-21T08:18:39.448Z,39.00
2019-01-21T08:19:39.433Z,39.50
2019-01-21T08:20:39.429Z,37.90
2019-01-21T08:21:39.416Z,37.80
2019-01-21T08:22:39.400Z,39.80
2019-01-21T08:23:39.402Z,40.20
2019-01-21T08:24:39.389Z,38.30
2019-01-21T08:25:39.386Z,40.00
2019-01-21T08:26:39.363Z,40.30
2019-01-21T08:27:39.394Z,38.00
2019-01-21T08:28:39.342Z,40.40
2019-01-21T08:29:39.326Z,39.10
2019-01-21T08:30:39.323Z,39.60
2019-01-21T08:31:39.304Z,39.00
2019-01-21T08:32:39.302Z,39.90
2019-01-21T08:33:39.298Z,38.70
2019-01-21T08:34:39.279Z,35.80
2019-01-21T08:35:39.272Z,38.90
2019-01-21T08:36:39.265Z,39.30
2019-01-21T08:37:39.290Z,39.10
2019-01-21T08:38:39.238Z,40.70
2019-01-21T08:39:39.227Z,39.10
2019-01-21T08:40:39.211Z,41.10
2019-01-21T08:41:39.199Z,41.40
2019-01-21T08:42:39.199Z,40.40
2019-01-21T08:43:39.193Z,40.40
2019-01-21T08:44:39.204Z,42.00
2019-01-21T08:45:39.158Z,40.80
2019-01-21T08:46:39.146Z,40.00
2019-01-21T08:47:39.141Z,42.10
2019-01-21T08:48:39.134Z,41.40
2019-01-21T08:49:39.121Z,40.80
2019-01-21T08:50:39.119Z,41.00
2019-01-21T08:51:39.099Z,40.30
2019-01-21T08:52:39.091Z,41.10
2019-01-21T08:53:39.079Z,42.10
2019-01-21T08:54:39.080Z,44.40
2019-01-21T08:55:39.051Z,42.90
2019-01-21T08:56:39.060Z,42.00
2019-01-21T08:57:39.036Z,44.20
2019-01-21T08:58:39.020Z,45.50
2019-01-21T08:59:39.016Z,48.80
2019-01-21T09:00:39.008Z,47.10
2019-01-21T09:01:39.027Z,44.50
2019-01-21T09:02:38.984Z,46.60
2019-01-21T09:03:38.976Z,48.20
2019-01-21T09:04:38.964Z,46.70
2019-01-21T09:05:38.952Z,50.90
2019-01-21T09:06:38.946Z,50.90
2019-01-21T09:07:38.940Z,50.20
2019-01-21T09:08:38.928Z,48.90
2019-01-21T09:09:38.905Z,50.60
2019-01-21T09:10:38.896Z,47.80
2019-01-21T09:11:38.899Z,51.90
2019-01-21T09:12:38.875Z,49.90
2019-01-21T09:13:38.863Z,51.00
2019-01-21T09:14:38.859Z,50.40
2019-01-21T09:15:38.885Z,43.70
2019-01-21T09:16:38.833Z,49.50
2019-01-21T09:17:38.830Z,44.60
2019-01-21T09:18:38.811Z,44.30
2019-01-21T09:19:38.802Z,50.20
2019-01-21T09:20:38.792Z,47.50
2019-01-21T09:21:38.792Z,45.50
2019-01-21T09:22:38.774Z,47.90
2019-01-21T09:23:38.772Z,48.00
2019-01-21T09:24:38.760Z,52.30
2019-01-21T09:25:38.740Z,53.20
2019-01-21T09:26:38.730Z,51.10
2019-01-21T09:27:38.726Z,55.80
2019-01-21T09:28:38.710Z,51.70
2019-01-21T09:29:38.712Z,51.60
2019-01-21T09:30:38.687Z,52.30
2019-01-21T09:31:38.683Z,51.80
2019-01-21T09:32:38.672Z,53.00
2019-01-21T09:33:38.661Z,51.00
2019-01-21T09:34:38.690Z,52.90
2019-01-21T09:35:38.650Z,52.60
2019-01-21T09:36:38.623Z,54.60
2019-01-21T09:37:38.615Z,47.00
2019-01-21T09:38:38.606Z,54.90
2019-01-21T09:39:38.593Z,49.80
2019-01-21T09:40:38.597Z,51.90
2019-01-21T09:41:38.579Z,52.80
2019-01-21T09:42:38.565Z,50.40
2019-01-21T09:43:38.564Z,49.20
2019-01-21T09:44:38.542Z,50.30
2019-01-21T09:45:38.548Z,48.40
2019-01-21T09:46:38.574Z,54.90
2019-01-21T09:47:38.511Z,53.30
2019-01-21T09:48:38.501Z,51.00
2019-01-21T09:49:43.722Z,48.90
2019-01-21T09:50:40.404Z,47.50
2019-01-21T09:51:38.476Z,48.20
2019-01-21T09:52:38.473Z,49.00
2019-01-21T09:53:38.453Z,48.70
2019-01-21T09:54:38.443Z,45.60
2019-01-21T09:55:38.429Z,47.90
2019-01-21T09:56:38.418Z,48.10
2019-01-21T09:57:38.420Z,45.30
2019-01-21T09:58:38.405Z,48.70
2019-01-21T09:59:38.401Z,48.20
2019-01-21T10:00:38.388Z,52.10
2019-01-21T10:01:38.380Z,51.10
2019-01-21T10:02:38.487Z,54.60
2019-01-21T10:03:38.348Z,47.40
2019-01-21T10:04:38.344Z,48.90
2019-01-21T10:05:38.331Z,49.90
2019-01-21T10:06:38.319Z,46.40
2019-01-21T10:07:38.306Z,47.90
2019-01-21T10:08:38.302Z,49.80
2019-01-21T10:09:38.283Z,49.80
2019-01-21T10:10:38.278Z,47.60
2019-01-21T10:11:38.265Z,47.90
2019-01-21T10:12:38.255Z,47.80
2019-01-21T10:13:38.251Z,48.00
2019-01-21T10:14:38.238Z,46.30
2019-01-21T10:15:38.240Z,49.30
2019-01-21T10:16:38.219Z,51.50
2019-01-21T10:17:38.204Z,47.30
2019-01-21T10:18:38.216Z,47.70
2019-01-21T10:19:38.215Z,50.00
2019-01-21T10:20:38.180Z,51.40
2019-01-21T10:21:38.163Z,46.70
2019-01-21T10:22:38.153Z,47.70
2019-01-21T10:23:38.145Z,50.80
2019-01-21T10:24:38.131Z,49.10
2019-01-21T10:25:38.135Z,51.80
2019-01-21T10:26:38.107Z,50.60
2019-01-21T10:27:38.102Z,50.40
2019-01-21T10:28:38.088Z,47.70
2019-01-21T10:29:38.095Z,51.20
2019-01-21T10:30:38.069Z,49.90
2019-01-21T10:31:38.060Z,47.90
2019-01-21T10:32:38.117Z,53.90
2019-01-21T10:33:38.034Z,55.20
2019-01-21T10:34:38.035Z,53.00
2019-01-21T10:35:38.012Z,51.70
2019-01-21T10:36:38.003Z,56.00
2019-01-21T10:37:37.992Z,49.20
2019-01-21T10:38:38.011Z,49.70
2019-01-21T10:39:37.976Z,49.00
2019-01-21T10:40:37.975Z,54.00
2019-01-21T10:41:37.954Z,46.60
2019-01-21T10:42:37.940Z,49.10
2019-01-21T10:43:37.933Z,50.30
2019-01-21T10:44:37.929Z,49.50
2019-01-21T10:45:37.909Z,48.90
2019-01-21T10:46:37.895Z,50.30
2019-01-21T10:47:37.892Z,48.80
2019-01-21T10:48:37.876Z,54.80
2019-01-21T10:49:37.878Z,56.40
2019-01-21T10:50:37.859Z,56.30
2019-01-21T10:51:37.850Z,53.70
2019-01-21T10:52:37.841Z,53.90
2019-01-21T10:53:37.822Z,51.80
2019-01-21T10:54:37.873Z,52.50
2019-01-21T10:55:37.805Z,50.30
2019-01-21T10:56:37.796Z,52.50
2019-01-21T10:57:37.786Z,52.70
2019-01-21T10:58:37.770Z,52.10
2019-01-21T10:59:37.758Z,56.10
2019-01-21T11:00:37.756Z,56.20
2019-01-21T11:01:37.740Z,55.10
2019-01-21T11:02:37.732Z,54.90
2019-01-21T11:03:37.721Z,55.20
2019-01-21T11:04:37.714Z,52.40
2019-01-21T11:05:37.709Z,54.70
2019-01-21T11:06:37.702Z,55.20
2019-01-21T11:07:37.684Z,54.50
2019-01-21T11:08:37.671Z,54.80
2019-01-21T11:09:37.658Z,53.50
2019-01-21T11:10:37.695Z,55.80
2019-01-21T11:11:37.642Z,53.90
2019-01-21T11:12:37.631Z,54.50
2019-01-21T11:13:37.617Z,58.00
2019-01-21T11:14:37.601Z,56.60
2019-01-21T11:15:37.599Z,55.00
2019-01-21T11:16:37.619Z,55.50
2019-01-21T11:17:37.569Z,56.70
2019-01-21T11:18:37.567Z,52.50
2019-01-21T11:19:37.569Z,54.20
2019-01-21T11:20:37.540Z,55.60
2019-01-21T11:21:37.532Z,54.60
2019-01-21T11:22:37.532Z,58.70
2019-01-21T11:23:37.513Z,56.90
2019-01-21T11:24:37.499Z,56.90
2019-01-21T11:25:37.493Z,59.60
2019-01-21T11:26:37.478Z,58.70
2019-01-21T11:27:37.492Z,56.80
2019-01-21T11:28:37.457Z,56.70
2019-01-21T11:29:37.452Z,55.30
2019-01-21T11:30:37.440Z,57.40
2019-01-21T11:31:37.440Z,53.60
2019-01-21T11:32:37.430Z,58.00
2019-01-21T11:33:37.409Z,55.20
2019-01-21T11:34:37.397Z,54.00
2019-01-21T11:35:37.391Z,58.80
2019-01-21T11:36:37.379Z,57.60
2019-01-21T11:37:37.375Z,58.10
2019-01-21T11:38:37.396Z,57.40
2019-01-21T11:39:37.343Z,54.20
2019-01-21T11:40:37.336Z,53.70
2019-01-21T11:41:37.320Z,54.00
2019-01-21T11:42:37.322Z,52.60
2019-01-21T11:43:37.305Z,52.60
2019-01-21T11:44:37.306Z,54.40
2019-01-21T11:45:37.282Z,54.30
2019-01-21T11:46:37.278Z,56.10
2019-01-21T11:47:37.277Z,52.40
2019-01-21T11:48:37.253Z,52.90
2019-01-21T11:49:37.251Z,54.00
2019-01-21T11:50:37.251Z,53.50
2019-01-21T11:51:37.219Z,51.50
2019-01-21T11:52:37.210Z,55.00
2019-01-21T11:53:37.195Z,52.40
2019-01-21T11:54:37.193Z,50.60
2019-01-21T11:55:37.187Z,47.40
2019-01-21T11:56:37.170Z,47.10
2019-01-21T11:57:37.158Z,48.70
2019-01-21T11:58:37.149Z,46.40
2019-01-21T11:59:37.140Z,46.70
2019-01-21T12:00:37.162Z,47.90
2019-01-21T12:01:37.115Z,46.50
2019-01-21T12:02:37.103Z,46.80
2019-01-21T12:03:37.095Z,44.10
2019-01-21T12:04:37.085Z,43.70
2019-01-21T12:05:37.071Z,43.30
2019-01-21T12:06:37.077Z,44.30
2019-01-21T12:07:37.053Z,46.10
2019-01-21T12:08:37.037Z,46.40
2019-01-21T12:09:37.031Z,46.40
2019-01-21T12:10:37.023Z,45.90
2019-01-21T12:11:37.032Z,44.50
2019-01-21T12:12:37.005Z,46.00
2019-01-21T12:13:36.986Z,46.60
2019-01-21T12:14:36.979Z,44.80
2019-01-21T12:15:36.970Z,44.60
2019-01-21T12:16:36.956Z,48.30
2019-01-21T12:17:36.961Z,48.00
2019-01-21T12:18:36.936Z,48.20
2019-01-21T12:19:36.928Z,47.40
2019-01-21T12:20:36.916Z,44.10
2019-01-21T12:21:36.907Z,46.80
2019-01-21T12:22:36.917Z,45.80
2019-01-21T12:23:36.893Z,47.20
2019-01-21T12:24:36.873Z,48.80
2019-01-21T12:25:36.857Z,49.00
2019-01-21T12:26:36.888Z,48.70
2019-01-21T12:27:36.843Z,46.90
2019-01-21T12:28:36.864Z,49.00
2019-01-21T12:29:36.815Z,49.80
2019-01-21T12:30:36.812Z,48.50
2019-01-21T12:31:36.799Z,48.80
2019-01-21T12:32:36.798Z,47.00
2019-01-21T12:33:36.774Z,45.30
2019-01-21T12:34:36.773Z,49.20
2019-01-21T12:35:36.758Z,45.70
2019-01-21T12:36:36.772Z,47.80
2019-01-21T12:37:36.739Z,43.50
2019-01-21T12:38:36.728Z,43.60
2019-01-21T12:39:36.742Z,43.90
2019-01-21T12:40:36.705Z,43.70
2019-01-21T12:41:36.688Z,41.80
2019-01-21T12:42:36.677Z,41.20
2019-01-21T12:43:36.667Z,41.20
2019-01-21T12:44:36.657Z,42.60
2019-01-21T12:45:36.662Z,43.10
2019-01-21T12:46:36.642Z,43.40
2019-01-21T12:47:36.625Z,42.10
2019-01-21T12:48:36.613Z,44.40
2019-01-21T12:49:36.604Z,43.30
2019-01-21T12:50:36.607Z,46.70
2019-01-21T12:51:36.588Z,43.90
2019-01-21T12:52:36.580Z,43.00